Time;durP1;ratioP1;P1;durP2;ratioP2;P2;SDS_P1;SDS_P2;PMS_P1;PMS_P2;Temp;Humidity;BMP_temperature;BMP_pressure;BME280_temperature;BME280_humidity;BME280_pressure;Samples;Min_cycle;Max_cycle;Signal;HPM_P1;HPM_P2
2021/05/02 00:00:37;;;;;;;1999.90;999.90;;;;;;;17.57;82.33;95184.94;5071414;28;20251;-59
2021/05/02 00:03:06;;;;;;;1999.90;999.90;;;;;;;17.60;82.23;95194.00;5071160;28;20254;-62
2021/05/02 00:05:37;;;;;;;1999.90;999.90;;;;;;;17.60;82.50;95194.00;5071494;28;20647;-59
2021/05/02 00:08:04;;;;;;;1999.90;999.90;;;;;;;17.64;82.87;95189.59;5071084;28;20258;-60
2021/05/02 00:10:35;;;;;;;1999.90;999.90;;;;;;;17.60;83.06;95194.00;5071239;28;20692;-61
2021/05/02 00:13:03;;;;;;;1999.90;999.90;;;;;;;17.50;83.68;95190.03;5070955;28;20721;-59
2021/05/02 00:15:33;;;;;;;1999.90;999.90;;;;;;;17.44;83.76;95185.38;5070721;28;20256;-59
2021/05/02 00:18:00;;;;;;;1999.90;999.90;;;;;;;17.23;85.16;95167.34;5071210;28;20188;-59
2021/05/02 00:20:28;;;;;;;1999.90;999.90;;;;;;;17.25;85.30;95151.97;5070911;28;20251;-60
2021/05/02 00:22:58;;;;;;;1999.90;999.90;;;;;;;17.31;84.89;95147.97;5070751;28;20254;-62
2021/05/02 00:25:27;;;;;;;1999.90;999.90;;;;;;;17.29;84.83;95165.94;5070743;28;20258;-59
2021/05/02 00:27:55;;;;;;;1999.90;999.90;;;;;;;17.35;84.44;95158.56;5070999;28;20197;-59
2021/05/02 00:30:24;;;;;;;1999.90;999.90;;;;;;;17.38;83.52;95155.25;5070712;28;20207;-59
2021/05/02 00:32:56;;;;;;;1999.90;999.90;;;;;;;17.40;83.42;95158.28;5070837;28;20196;-61
2021/05/02 00:35:24;;;;;;;1999.90;999.90;;;;;;;17.36;83.62;95160.09;5070609;28;20279;-60
2021/05/02 00:37:52;;;;;;;1999.90;999.90;;;;;;;17.36;83.76;95160.09;5070425;28;20709;-60
2021/05/02 00:40:26;;;;;;;1999.90;999.90;;;;;;;17.36;84.34;95152.19;5070759;28;20298;-60
2021/05/02 00:42:54;;;;;;;1999.90;999.90;;;;;;;17.15;86.30;95153.28;5070678;28;20289;-61
2021/05/02 00:45:26;;;;;;;1999.90;999.90;;;;;;;16.92;88.04;95149.78;5070794;28;20235;-60
2021/05/02 00:48:02;;;;;;;1999.90;999.90;;;;;;;16.78;89.05;95139.72;5070653;28;20785;-60
2021/05/02 00:50:35;;;;;;;1999.90;999.90;;;;;;;16.68;90.00;95136.84;5070645;28;20228;-59
2021/05/02 00:53:18;;;;;;;1999.90;999.90;;;;;;;16.60;90.93;95128.03;5070527;28;20270;-59
2021/05/02 00:55:55;;;;;;;1999.90;999.90;;;;;;;16.50;92.02;95123.28;5070559;28;20245;-59
2021/05/02 00:58:47;;;;;;;1999.90;999.90;;;;;;;16.28;93.69;95116.78;5070031;28;20614;-59
2021/05/02 01:01:19;;;;;;;1999.90;999.90;;;;;;;16.28;93.72;95113.41;5070304;28;20627;-57
2021/05/02 01:03:48;;;;;;;1999.90;999.90;;;;;;;16.30;93.61;95103.31;5070276;28;20259;-59
2021/05/02 01:06:17;;;;;;;1999.90;999.90;;;;;;;16.50;92.76;95101.53;5070572;28;20200;-60
2021/05/02 01:08:44;;;;;;;1999.90;999.90;;;;;;;16.38;92.53;95115.53;5070170;28;20249;-61
2021/05/02 01:11:16;;;;;;;1999.90;999.90;;;;;;;16.27;92.79;95125.75;5069748;28;20224;-60
2021/05/02 01:13:51;;;;;;;1999.90;999.90;;;;;;;16.25;92.74;95122.69;5069896;28;20274;-60
2021/05/02 01:16:20;;;;;;;1999.90;999.90;;;;;;;16.27;92.54;95127.59;5069982;28;20734;-60
2021/05/02 01:18:48;;;;;;;1999.90;999.90;;;;;;;16.11;92.59;95130.22;5069920;28;20605;-60
2021/05/02 01:21:18;;;;;;;1999.90;999.90;;;;;;;15.86;93.30;95129.56;5070047;28;20192;-60
2021/05/02 01:23:48;;;;;;;1999.90;999.90;;;;;;;15.81;94.42;95129.81;5069972;28;20203;-58
2021/05/02 01:26:18;;;;;;;1999.90;999.90;;;;;;;15.91;94.40;95118.84;5070211;28;20208;-59
2021/05/02 01:28:47;;;;;;;1999.90;999.90;;;;;;;15.83;95.14;95105.91;5069909;28;20250;-60
2021/05/02 01:31:14;;;;;;;1999.90;999.90;;;;;;;15.91;95.29;95118.09;5070103;28;20202;-60
2021/05/02 01:33:41;;;;;;;1999.90;999.90;;;;;;;15.83;95.67;95119.00;5069868;28;20192;-60
2021/05/02 01:36:09;;;;;;;1999.90;999.90;;;;;;;15.82;95.70;95114.88;5069786;28;20204;-59
2021/05/02 01:38:36;;;;;;;1999.90;999.90;;;;;;;15.77;94.88;95107.25;5070057;28;20207;-60
2021/05/02 01:41:04;;;;;;;1999.90;999.90;;;;;;;15.70;95.58;95093.94;5070010;28;20228;-60
2021/05/02 01:43:31;;;;;;;1999.90;999.90;;;;;;;15.65;95.15;95094.19;5070015;28;20204;-59
2021/05/02 01:45:58;;;;;;;1999.90;999.90;;;;;;;15.61;95.06;95088.88;5069821;28;20696;-60
2021/05/02 01:48:27;;;;;;;1999.90;999.90;;;;;;;15.78;93.98;95077.34;5069711;28;20671;-60
2021/05/02 01:51:00;;;;;;;1999.90;999.90;;;;;;;15.84;92.67;95104.81;5070257;28;20235;-60
2021/05/02 01:53:28;;;;;;;1999.90;999.90;;;;;;;15.75;93.15;95102.34;5069679;28;20189;-62
2021/05/02 01:55:55;;;;;;;1999.90;999.90;;;;;;;15.86;92.57;95095.50;5069637;28;20729;-60
2021/05/02 01:58:25;;;;;;;1999.90;999.90;;;;;;;15.91;90.75;95110.22;5069628;28;20254;-59
2021/05/02 02:00:53;;;;;;;1999.90;999.90;;;;;;;15.88;90.98;95124.00;5069896;28;20655;-60
2021/05/02 02:03:21;;;;;;;1999.90;999.90;;;;;;;15.82;91.67;95110.38;5069426;28;20192;-60
2021/05/02 02:05:49;;;;;;;1999.90;999.90;;;;;;;15.80;91.45;95103.94;5069954;28;20262;-61
2021/05/02 02:08:18;;;;;;;1999.90;999.90;;;;;;;15.75;92.22;95106.81;5069563;28;20196;-61
2021/05/02 02:10:47;;;;;;;1999.90;999.90;;;;;;;15.58;94.01;95109.75;5069542;28;20193;-61
2021/05/02 02:13:16;;;;;;;1999.90;999.90;;;;;;;15.57;95.06;95116.06;5069474;28;20227;-60
2021/05/02 02:15:44;;;;;;;1999.90;999.90;;;;;;;15.40;95.38;95102.13;5069485;28;20232;-61
2021/05/02 02:18:14;;;;;;;1999.90;999.90;;;;;;;15.37;97.46;95094.19;5069935;28;20205;-62
2021/05/02 02:20:43;;;;;;;1999.90;999.90;;;;;;;15.32;98.73;95103.03;5069602;28;20220;-60
2021/05/02 02:23:16;;;;;;;1999.90;999.90;;;;;;;15.38;98.75;95108.81;5070090;28;20291;-60
2021/05/02 02:25:44;;;;;;;1999.90;999.90;;;;;;;15.48;98.16;95111.72;5072999;28;20687;-61
2021/05/02 02:28:14;;;;;;;1999.90;999.90;;;;;;;15.38;98.36;95111.41;5073040;28;20583;-60
2021/05/02 02:30:42;;;;;;;1999.90;999.90;;;;;;;15.36;98.53;95096.03;5073294;28;20201;-60
2021/05/02 02:33:11;;;;;;;1999.90;999.90;;;;;;;15.25;99.62;95092.34;5072985;28;20207;-62
2021/05/02 02:35:42;;;;;;;1999.90;999.90;;;;;;;15.32;100.00;95091.78;5072837;28;20279;-60
2021/05/02 02:38:14;;;;;;;1999.90;999.90;;;;;;;15.29;99.65;95093.22;5072904;28;20192;-60
2021/05/02 02:40:42;;;;;;;1999.90;999.90;;;;;;;15.23;100.00;95099.78;5072775;28;20224;-60
2021/05/02 02:43:11;;;;;;;1999.90;999.90;;;;;;;15.03;100.00;95083.16;5072691;28;20667;-60
2021/05/02 02:45:39;;;;;;;1999.90;999.90;;;;;;;14.98;100.00;95085.25;5072844;28;20257;-58
2021/05/02 02:48:07;;;;;;;1999.90;999.90;;;;;;;15.07;100.00;95078.03;5072653;28;20654;-59
2021/05/02 02:50:34;;;;;;;1999.90;999.90;;;;;;;15.03;100.00;95079.78;5072666;28;20189;-60
2021/05/02 02:53:04;;;;;;;1999.90;999.90;;;;;;;15.07;100.00;95085.88;5072476;28;20908;-61
2021/05/02 02:55:32;;;;;;;1999.90;999.90;;;;;;;15.01;100.00;95092.41;5072587;28;20193;-60
2021/05/02 02:58:01;;;;;;;1999.90;999.90;;;;;;;15.00;100.00;95085.66;5072545;28;20517;-59
2021/05/02 03:00:32;;;;;;;1999.90;999.90;;;;;;;14.92;100.00;95087.31;5072400;28;20719;-60
2021/05/02 03:03:05;;;;;;;1999.90;999.90;;;;;;;14.78;100.00;95092.13;5072408;28;20572;-59
2021/05/02 03:05:35;;;;;;;1999.90;999.90;;;;;;;14.71;100.00;95094.53;5072533;28;20279;-62
2021/05/02 03:08:04;;;;;;;1999.90;999.90;;;;;;;14.73;100.00;95091.59;5072449;28;20663;-60
2021/05/02 03:10:31;;;;;;;1999.90;999.90;;;;;;;14.66;100.00;95100.00;5072404;28;20668;-62
2021/05/02 03:12:59;;;;;;;1999.90;999.90;;;;;;;14.52;100.00;95092.47;5072167;28;20245;-60
2021/05/02 03:15:27;;;;;;;1999.90;999.90;;;;;;;14.51;100.00;95098.78;5072080;28;20236;-60
2021/05/02 03:18:02;;;;;;;1999.90;999.90;;;;;;;14.45;100.00;95096.72;5072061;28;20196;-60
2021/05/02 03:20:34;;;;;;;1999.90;999.90;;;;;;;14.48;100.00;95088.25;5072156;28;20227;-61
2021/05/02 03:23:08;;;;;;;1999.90;999.90;;;;;;;14.49;100.00;95093.16;5072157;28;20215;-61
2021/05/02 03:25:36;;;;;;;1999.90;999.90;;;;;;;14.48;100.00;95096.84;5072090;28;20667;-62
2021/05/02 03:28:05;;;;;;;1999.90;999.90;;;;;;;14.52;100.00;95089.88;5071894;28;20199;-61
2021/05/02 03:30:34;;;;;;;1999.90;999.90;;;;;;;14.56;100.00;95093.34;5072122;28;20196;-60
2021/05/02 03:33:05;;;;;;;1999.90;999.90;;;;;;;14.57;100.00;95100.09;5072263;28;20200;-60
2021/05/02 03:35:34;;;;;;;1999.90;999.90;;;;;;;14.67;100.00;95103.38;5071643;28;20819;-60
2021/05/02 03:38:10;;;;;;;1999.90;999.90;;;;;;;14.72;100.00;95105.75;5071816;28;20568;-61
2021/05/02 03:40:38;;;;;;;1999.90;999.90;;;;;;;14.79;100.00;95113.84;5071813;28;20232;-60
2021/05/02 03:43:05;;;;;;;1999.90;999.90;;;;;;;14.84;100.00;95111.75;5071539;28;20199;-58
2021/05/02 03:45:33;;;;;;;1999.90;999.90;;;;;;;14.72;100.00;95105.75;5071499;28;20210;-62
2021/05/02 03:48:00;;;;;;;1999.90;999.90;;;;;;;14.74;100.00;95106.22;5071538;28;20199;-60
2021/05/02 03:50:26;;;;;;;1999.90;999.90;;;;;;;14.65;100.00;95111.53;5071673;28;20200;-60
2021/05/02 03:52:53;;;;;;;1999.90;999.90;;;;;;;14.64;100.00;95099.56;5071558;28;20193;-62
2021/05/02 03:55:21;;;;;;;1999.90;999.90;;;;;;;14.63;100.00;95098.03;5071934;28;20253;-60
2021/05/02 03:57:48;;;;;;;1999.90;999.90;;;;;;;14.62;100.00;95099.88;5071261;28;20578;-60
2021/05/02 04:00:16;;;;;;;1999.90;999.90;;;;;;;14.52;100.00;95082.03;5071475;28;20235;-60
2021/05/02 04:02:42;;;;;;;1999.90;999.90;;;;;;;14.52;100.00;95097.72;5071468;28;20192;-60
2021/05/02 04:05:10;;;;;;;1999.90;999.90;;;;;;;14.38;100.00;95112.97;5071176;28;20246;-61
2021/05/02 04:07:38;;;;;;;1999.90;999.90;;;;;;;14.37;100.00;95116.66;5071434;28;20189;-60
2021/05/02 04:10:07;;;;;;;1999.90;999.90;;;;;;;14.61;100.00;95116.66;5071155;28;20193;-61
2021/05/02 04:12:34;;;;;;;1999.90;999.90;;;;;;;14.78;100.00;95123.53;5071127;28;20192;-61
2021/05/02 04:15:01;;;;;;;1999.90;999.90;;;;;;;15.03;100.00;95126.88;5070634;28;20298;-61
2021/05/02 04:17:30;;;;;;;1999.90;999.90;;;;;;;15.07;100.00;95122.50;5071005;28;20283;-59
2021/05/02 04:19:56;;;;;;;1999.90;999.90;;;;;;;15.19;100.00;95109.41;5070935;28;20721;-60
2021/05/02 04:22:29;;;;;;;1999.90;999.90;;;;;;;15.36;100.00;95109.13;5070921;28;20655;-59
2021/05/02 04:24:56;;;;;;;1999.90;999.90;;;;;;;15.46;100.00;95102.66;5070789;28;20683;-59
2021/05/02 04:27:23;;;;;;;1999.90;999.90;;;;;;;15.55;100.00;95113.00;5070573;28;20658;-59
2021/05/02 04:29:50;;;;;;;1999.90;999.90;;;;;;;15.78;100.00;95114.78;5070764;28;20189;-60
2021/05/02 04:32:17;;;;;;;1999.90;999.90;;;;;;;16.02;98.97;95098.16;5070692;28;20558;-60
2021/05/02 04:34:44;;;;;;;1999.90;999.90;;;;;;;16.06;96.82;95096.38;5070703;28;20200;-61
2021/05/02 04:37:11;;;;;;;1999.90;999.90;;;;;;;16.17;97.53;95120.25;5070417;28;20275;-60
2021/05/02 04:39:38;;;;;;;1999.90;999.90;;;;;;;16.11;100.00;95104.00;5070720;28;20235;-60
2021/05/02 04:42:06;;;;;;;1999.90;999.90;;;;;;;16.35;98.64;95100.44;5070635;28;20588;-61
2021/05/02 04:44:33;;;;;;;1999.90;999.90;;;;;;;16.61;96.52;95095.47;5070600;28;20253;-61
2021/05/02 04:47:00;;;;;;;1999.90;999.90;;;;;;;16.98;93.49;95095.91;5069802;28;20578;-58
2021/05/02 04:49:27;;;;;;;1999.90;999.90;;;;;;;17.26;93.90;95102.84;5070385;28;20203;-59
2021/05/02 04:51:54;;;;;;;1999.90;999.90;;;;;;;17.54;95.74;95100.75;5070269;28;20235;-59
2021/05/02 04:54:21;;;;;;;1999.90;999.90;;;;;;;17.92;90.84;95102.63;5070269;28;20194;-59
2021/05/02 04:56:48;;;;;;;1999.90;999.90;;;;;;;18.26;87.13;95106.22;5070228;28;20262;-59
2021/05/02 04:59:15;;;;;;;1999.90;999.90;;;;;;;18.45;86.24;95114.03;5070144;28;20251;-58
2021/05/02 05:01:44;;;;;;;1999.90;999.90;;;;;;;18.61;87.63;95106.81;5070267;28;20200;-63
2021/05/02 05:04:13;;;;;;;1999.90;999.90;;;;;;;18.70;86.41;95106.56;5070167;28;20242;-60
2021/05/02 05:06:40;;;;;;;1999.90;999.90;;;;;;;18.69;86.28;95105.78;5070449;28;20660;-60
2021/05/02 05:09:06;;;;;;;1999.90;999.90;;;;;;;18.79;84.84;95099.91;5070141;28;20200;-61
2021/05/02 05:11:33;;;;;;;1999.90;999.90;;;;;;;18.81;84.03;95094.31;5070448;28;20192;-60
2021/05/02 05:14:00;;;;;;;1999.90;999.90;;;;;;;18.90;84.04;95089.53;5070145;28;20609;-60
2021/05/02 05:16:29;;;;;;;1999.90;999.90;;;;;;;19.01;83.03;95100.22;5069914;28;20236;-61
2021/05/02 05:18:55;;;;;;;1999.90;999.90;;;;;;;19.05;83.56;95095.75;5069994;28;20276;-61
2021/05/02 05:21:23;;;;;;;1999.90;999.90;;;;;;;19.11;84.75;95099.59;5070010;28;20281;-60
2021/05/02 05:23:50;;;;;;;1999.90;999.90;;;;;;;19.13;85.39;95092.84;5069834;28;20199;-60
2021/05/02 05:26:18;;;;;;;1999.90;999.90;;;;;;;19.33;85.06;95106.66;5070011;28;20194;-60
2021/05/02 05:28:45;;;;;;;1999.90;999.90;;;;;;;19.48;85.87;95108.38;5069901;28;20192;-60
2021/05/02 05:31:11;;;;;;;1999.90;999.90;;;;;;;19.52;85.61;95105.78;5069885;28;20275;-60
2021/05/02 05:33:38;;;;;;;1999.90;999.90;;;;;;;19.58;85.21;95109.59;5070007;28;20189;-59
2021/05/02 05:36:05;;;;;;;1999.90;999.90;;;;;;;19.52;85.78;95103.16;5069935;28;20224;-59
2021/05/02 05:38:33;;;;;;;1999.90;999.90;;;;;;;19.67;86.10;95118.00;5069602;28;20291;-60
2021/05/02 05:41:00;;;;;;;1999.90;999.90;;;;;;;19.63;85.70;95110.03;5069625;28;20728;-62
2021/05/02 05:43:27;;;;;;;1999.90;999.90;;;;;;;19.78;86.47;95118.88;5069894;28;20196;-60
2021/05/02 05:45:54;;;;;;;1999.90;999.90;;;;;;;19.84;83.71;95124.59;5069879;28;20231;-61
2021/05/02 05:48:21;;;;;;;1999.90;999.90;;;;;;;19.98;83.92;95124.72;5069795;28;20232;-60
2021/05/02 05:50:48;;;;;;;1999.90;999.90;;;;;;;19.89;84.99;95121.63;5069896;28;20189;-60
2021/05/02 05:53:16;;;;;;;1999.90;999.90;;;;;;;20.03;84.66;95119.13;5069840;28;20197;-60
2021/05/02 05:55:43;;;;;;;1999.90;999.90;;;;;;;20.07;83.49;95128.63;5069771;28;20203;-60
2021/05/02 05:58:11;;;;;;;1999.90;999.90;;;;;;;20.19;83.41;95125.69;5071931;28;20192;-60
2021/05/02 06:00:37;;;;;;;1999.90;999.90;;;;;;;20.22;83.05;95134.03;5073448;28;20234;-60
2021/05/02 06:03:04;;;;;;;1999.90;999.90;;;;;;;20.38;83.78;95126.63;5073149;28;20437;-63
2021/05/02 06:05:31;;;;;;;1999.90;999.90;;;;;;;20.56;82.75;95123.03;5073620;28;20207;-60
2021/05/02 06:07:59;;;;;;;1999.90;999.90;;;;;;;20.78;81.30;95121.28;5073894;28;20200;-60
2021/05/02 06:10:26;;;;;;;1999.90;999.90;;;;;;;20.76;83.07;95114.88;5073486;28;20193;-60
2021/05/02 06:12:55;;;;;;;1999.90;999.90;;;;;;;20.93;83.39;95104.41;5073171;28;20233;-60
2021/05/02 06:15:22;;;;;;;1999.90;999.90;;;;;;;21.08;80.85;95122.97;5073217;28;20230;-60
2021/05/02 06:17:49;;;;;;;1999.90;999.90;;;;;;;21.24;79.43;95113.69;5073178;28;20192;-63
2021/05/02 06:20:16;;;;;;;1999.90;999.90;;;;;;;21.28;79.21;95117.09;5073182;28;20232;-61
2021/05/02 06:22:43;;;;;;;1999.90;999.90;;;;;;;21.39;78.85;95125.84;5073350;28;20308;-60
2021/05/02 06:25:11;;;;;;;1999.90;999.90;;;;;;;21.47;77.87;95135.31;5073063;28;20242;-59
2021/05/02 06:27:38;;;;;;;1999.90;999.90;;;;;;;21.68;76.39;95141.81;5073064;28;20192;-61
2021/05/02 06:30:08;;;;;;;1999.90;999.90;;;;;;;21.78;75.92;95136.56;5073342;28;20193;-60
2021/05/02 06:32:36;;;;;;;1999.90;999.90;;;;;;;21.88;76.52;95125.25;5073167;28;20197;-61
2021/05/02 06:35:03;;;;;;;1999.90;999.90;;;;;;;21.99;78.14;95130.59;5073101;28;20261;-61
2021/05/02 06:37:30;;;;;;;1999.90;999.90;;;;;;;22.10;77.53;95126.09;5073049;28;20224;-61
2021/05/02 06:39:57;;;;;;;1999.90;999.90;;;;;;;22.19;76.94;95126.50;5072709;28;20227;-61
2021/05/02 06:42:24;;;;;;;1999.90;999.90;;;;;;;22.36;75.89;95127.66;5072716;28;20275;-61
2021/05/02 06:44:51;;;;;;;1999.90;999.90;;;;;;;22.55;71.14;95126.50;5072751;28;20193;-60
2021/05/02 06:47:19;;;;;;;1999.90;999.90;;;;;;;22.61;70.13;95128.41;5072730;28;20199;-61
2021/05/02 06:49:46;;;;;;;1999.90;999.90;;;;;;;22.83;71.87;95112.50;5072803;28;20224;-61
2021/05/02 06:52:13;;;;;;;1999.90;999.90;;;;;;;23.00;70.88;95101.91;5072984;28;20304;-61
2021/05/02 06:54:40;;;;;;;1999.90;999.90;;;;;;;23.17;67.16;95109.03;5072458;28;20193;-59
2021/05/02 06:57:07;;;;;;;1999.90;999.90;;;;;;;23.26;62.37;95098.06;5072820;28;20250;-61
2021/05/02 06:59:34;;;;;;;1999.90;999.90;;;;;;;23.41;63.09;95091.53;5072528;28;20231;-63
2021/05/02 07:02:01;;;;;;;1999.90;999.90;;;;;;;23.45;61.00;95094.22;5072349;28;20238;-60
2021/05/02 07:04:33;;;;;;;1999.90;999.90;;;;;;;23.52;61.81;95094.94;5072605;28;20667;-60
2021/05/02 07:07:00;;;;;;;1999.90;999.90;;;;;;;23.54;62.01;95086.59;5072406;28;20199;-60
2021/05/02 07:09:27;;;;;;;1999.90;999.90;;;;;;;23.63;60.59;95089.59;5071630;28;20196;-60
2021/05/02 07:11:54;;;;;;;1999.90;999.90;;;;;;;23.64;58.75;95096.41;5072537;28;20200;-60
2021/05/02 07:14:20;;;;;;;1999.90;999.90;;;;;;;23.81;59.57;95092.88;5072334;28;20212;-62
2021/05/02 07:16:47;;;;;;;1999.90;999.90;;;;;;;23.84;63.09;95089.47;5072031;28;20255;-61
2021/05/02 07:19:14;;;;;;;1999.90;999.90;;;;;;;23.96;64.05;95096.97;5072428;28;20269;-61
2021/05/02 07:21:42;;;;;;;1999.90;999.90;;;;;;;24.08;58.28;95097.69;5072137;28;20228;-61
2021/05/02 07:24:09;;;;;;;1999.90;999.90;;;;;;;24.07;58.49;95096.91;5072377;28;20584;-60
2021/05/02 07:26:36;;;;;;;1999.90;999.90;;;;;;;24.23;57.08;95102.53;5071940;28;20208;-58
2021/05/02 07:29:03;;;;;;;1999.90;999.90;;;;;;;24.29;58.30;95118.81;5072361;28;20284;-60
2021/05/02 07:31:30;;;;;;;1999.90;999.90;;;;;;;24.39;57.33;95115.34;5071940;28;20202;-60
2021/05/02 07:33:57;;;;;;;1999.90;999.90;;;;;;;24.24;59.16;95122.66;5071898;28;20195;-60
2021/05/02 07:36:24;;;;;;;1999.90;999.90;;;;;;;24.17;58.42;95128.00;5071816;28;21206;-61
2021/05/02 07:38:53;;;;;;;1999.90;999.90;;;;;;;24.44;57.68;95133.50;5072122;28;20200;-60
2021/05/02 07:41:19;;;;;;;1999.90;999.90;;;;;;;24.42;59.81;95136.56;5071830;28;20254;-61
2021/05/02 07:43:46;;;;;;;1999.90;999.90;;;;;;;24.19;59.08;95146.97;5071675;28;20283;-60
2021/05/02 07:46:13;;;;;;;1999.90;999.90;;;;;;;24.20;58.61;95150.38;5071752;28;20279;-61
2021/05/02 07:48:40;;;;;;;1999.90;999.90;;;;;;;24.31;59.05;95149.13;5071669;28;20195;-62
2021/05/02 07:51:06;;;;;;;1999.90;999.90;;;;;;;24.43;57.09;95145.28;5071749;28;20353;-60
2021/05/02 07:53:33;;;;;;;1999.90;999.90;;;;;;;24.50;58.70;95150.56;5071762;28;20254;-62
2021/05/02 07:56:01;;;;;;;1999.90;999.90;;;;;;;24.59;56.03;95148.22;5071686;28;20239;-60
2021/05/02 07:58:28;;;;;;;1999.90;999.90;;;;;;;24.76;54.71;95154.50;5071327;28;20682;-60
2021/05/02 08:00:55;;;;;;;1999.90;999.90;;;;;;;24.86;54.72;95149.09;5071505;28;20232;-61
2021/05/02 08:03:21;;;;;;;1999.90;999.90;;;;;;;25.18;55.65;95140.13;5071639;28;20283;-60
2021/05/02 08:05:49;;;;;;;1999.90;999.90;;;;;;;25.43;55.53;95148.59;5071150;28;20578;-60
2021/05/02 08:08:16;;;;;;;1999.90;999.90;;;;;;;25.62;51.32;95142.69;5071238;28;20569;-61
2021/05/02 08:10:43;;;;;;;1999.90;999.90;;;;;;;25.92;50.07;95133.19;5071230;28;20247;-60
2021/05/02 08:13:10;;;;;;;1999.90;999.90;;;;;;;26.20;51.55;95140.06;5071130;28;20248;-62
2021/05/02 08:15:37;;;;;;;1999.90;999.90;;;;;;;26.42;50.94;95141.28;5070865;28;20729;-60
2021/05/02 08:18:04;;;;;;;1999.90;999.90;;;;;;;26.65;50.79;95140.56;5071006;28;20635;-60
2021/05/02 08:20:31;;;;;;;1999.90;999.90;;;;;;;26.70;49.52;95138.19;5070428;28;20230;-61
2021/05/02 08:22:58;;;;;;;1999.90;999.90;;;;;;;26.85;49.64;95138.72;5070841;28;20200;-61
2021/05/02 08:25:24;;;;;;;1999.90;999.90;;;;;;;26.71;48.48;95137.03;5070872;28;20245;-62
2021/05/02 08:27:51;;;;;;;1999.90;999.90;;;;;;;26.56;48.30;95143.72;5070594;28;20192;-61
2021/05/02 08:30:19;;;;;;;1999.90;999.90;;;;;;;26.37;47.93;95141.75;5070902;28;20862;-62
2021/05/02 08:32:46;;;;;;;1999.90;999.90;;;;;;;26.31;47.55;95149.44;5070721;28;20200;-61
2021/05/02 08:35:14;;;;;;;1999.90;999.90;;;;;;;26.46;50.26;95134.75;5071164;28;20283;-62
2021/05/02 08:37:41;;;;;;;1999.90;999.90;;;;;;;26.65;48.79;95138.63;5070937;28;20283;-61
2021/05/02 08:40:09;;;;;;;1999.90;999.90;;;;;;;26.63;45.93;95137.56;5070641;28;20606;-61
2021/05/02 08:42:36;;;;;;;1999.90;999.90;;;;;;;26.70;48.99;95132.13;5070168;28;20288;-62
2021/05/02 08:45:05;;;;;;;1999.90;999.90;;;;;;;26.99;49.23;95130.50;5070485;28;20257;-61
2021/05/02 08:47:36;;;;;;;1999.90;999.90;;;;;;;27.33;49.42;95140.94;5070349;28;20609;-63
2021/05/02 08:50:04;;;;;;;1999.90;999.90;;;;;;;27.60;46.52;95143.50;5070730;28;20192;-61
2021/05/02 08:52:31;;;;;;;1999.90;999.90;;;;;;;27.67;43.22;95132.69;5070349;28;20291;-63
2021/05/02 08:54:58;;;;;;;1999.90;999.90;;;;;;;27.71;45.37;95131.44;5070505;28;20196;-61
2021/05/02 08:57:25;;;;;;;1999.90;999.90;;;;;;;27.72;43.07;95132.97;5070499;28;20258;-62
2021/05/02 08:59:52;;;;;;;1999.90;999.90;;;;;;;27.92;44.51;95132.94;5070423;28;20680;-61
2021/05/02 09:02:23;;;;;;;1999.90;999.90;;;;;;;27.97;43.52;95119.09;5070928;28;20197;-62
2021/05/02 09:04:55;;;;;;;1999.90;999.90;;;;;;;28.17;43.38;95132.44;5070243;28;20242;-61
2021/05/02 09:07:22;;;;;;;1999.90;999.90;;;;;;;28.25;38.48;95123.84;5070139;28;20197;-61
2021/05/02 09:09:51;;;;;;;1999.90;999.90;;;;;;;28.19;40.57;95114.06;5070422;28;20223;-62
2021/05/02 09:12:22;;;;;;;1999.90;999.90;;;;;;;28.23;39.11;95118.16;5070116;28;20293;-60
2021/05/02 09:14:49;;;;;;;1999.90;999.90;;;;;;;28.56;41.62;95110.91;5069939;28;20262;-60
2021/05/02 09:17:21;;;;;;;1999.90;999.90;;;;;;;28.80;43.63;95105.38;5070183;28;20276;-60
2021/05/02 09:19:52;;;;;;;1999.90;999.90;;;;;;;28.64;43.00;95101.53;5070354;28;20273;-60
2021/05/02 09:22:21;;;;;;;1999.90;999.90;;;;;;;28.75;40.15;95106.66;5070165;28;20196;-61
2021/05/02 09:25:02;;;;;;;1999.90;999.90;;;;;;;28.94;39.76;95111.13;5069876;28;20193;-60
2021/05/02 09:27:29;;;;;;;1999.90;999.90;;;;;;;28.80;38.07;95098.13;5070131;28;20197;-61
2021/05/02 09:30:14;;;;;;;1999.90;999.90;;;;;;;28.79;38.19;95102.00;5069888;28;20189;-60
2021/05/02 09:32:44;;;;;;;1999.90;999.90;;;;;;;28.88;38.70;95099.47;5069825;28;20294;-62
2021/05/02 09:35:25;;;;;;;1999.90;999.90;;;;;;;28.81;36.68;95088.16;5069968;28;20192;-60
2021/05/02 09:38:07;;;;;;;1999.90;999.90;;;;;;;28.77;36.60;95088.28;5070220;28;20747;-60
2021/05/02 09:40:45;;;;;;;1999.90;999.90;;;;;;;28.75;36.21;95084.50;5070005;28;20223;-61
2021/05/02 09:43:31;;;;;;;1999.90;999.90;;;;;;;28.94;35.69;95078.31;5070382;28;20737;-61
2021/05/02 09:46:26;;;;;;;1999.90;999.90;;;;;;;29.09;35.34;95087.47;5069698;28;20193;-60
2021/05/02 09:49:12;;;;;;;1999.90;999.90;;;;;;;28.72;35.28;95075.41;5069845;28;20205;-61
2021/05/02 09:51:43;;;;;;;1999.90;999.90;;;;;;;28.42;36.00;95073.06;5069298;28;20223;-60
2021/05/02 09:54:13;;;;;;;1999.90;999.90;;;;;;;28.32;37.51;95055.34;5069829;28;20197;-61
2021/05/02 09:56:46;;;;;;;1999.90;999.90;;;;;;;28.63;36.01;95056.50;5069623;28;20648;-60
2021/05/02 09:59:27;;;;;;;1999.90;999.90;;;;;;;29.24;36.41;95058.38;5069813;28;20224;-61
2021/05/02 10:02:21;;;;;;;1999.90;999.90;;;;;;;28.62;35.62;95055.00;5069795;28;20216;-60
2021/05/02 10:04:50;;;;;;;1999.90;999.90;;;;;;;28.83;36.96;95065.19;5069782;28;20250;-61
2021/05/02 10:07:18;;;;;;;1999.90;999.90;;;;;;;28.89;34.00;95068.09;5070083;28;20199;-61
2021/05/02 10:09:46;;;;;;;1999.90;999.90;;;;;;;29.17;35.40;95074.63;5069430;28;20197;-60
2021/05/02 10:12:14;;;;;;;1999.90;999.90;;;;;;;29.60;34.01;95064.25;5069480;28;20651;-60
2021/05/02 10:14:44;;;;;;;1999.90;999.90;;;;;;;29.84;34.83;95057.41;5069343;28;20258;-60
2021/05/02 10:17:12;;;;;;;1999.90;999.90;;;;;;;29.42;34.72;95055.97;5069300;28;20315;-60
2021/05/02 10:19:39;;;;;;;1999.90;999.90;;;;;;;29.37;35.71;95049.22;5069648;28;20228;-60
2021/05/02 10:22:07;;;;;;;1999.90;999.90;;;;;;;29.68;34.26;95046.81;5069408;28;20272;-61
2021/05/02 10:24:35;;;;;;;1999.90;999.90;;;;;;;29.34;34.50;95049.34;5069387;28;20265;-59
2021/05/02 10:27:07;;;;;;;1999.90;999.90;;;;;;;29.73;38.97;95032.91;5069404;28;20231;-61
2021/05/02 10:29:37;;;;;;;1999.90;999.90;;;;;;;29.71;33.50;95029.13;5069636;28;20211;-61
2021/05/02 10:32:06;;;;;;;1999.90;999.90;;;;;;;29.84;33.31;95027.19;5069286;28;20192;-62
2021/05/02 10:34:35;;;;;;;1999.90;999.90;;;;;;;29.86;34.78;95035.56;5069257;28;20200;-61
2021/05/02 10:37:36;;;;;;;1999.90;999.90;;;;;;;29.75;34.84;95035.13;5069161;28;20189;-61
2021/05/02 10:40:07;;;;;;;1999.90;999.90;;;;;;;29.86;33.42;95024.84;5069491;28;20224;-61
2021/05/02 10:42:47;;;;;;;1999.90;999.90;;;;;;;29.57;36.81;95034.91;5069626;28;20234;-61
2021/05/02 10:45:41;;;;;;;1999.90;999.90;;;;;;;29.56;34.03;95030.72;5071232;28;20596;-61
2021/05/02 10:48:09;;;;;;;1999.90;999.90;;;;;;;29.64;35.46;95040.06;5065502;28;20196;-61
2021/05/02 10:50:40;;;;;;;1999.90;999.90;;;;;;;29.60;33.04;95029.44;5072564;28;20200;-61
2021/05/02 10:53:10;;;;;;;1999.90;999.90;;;;;;;29.39;34.49;95024.72;5072486;28;20676;-61
2021/05/02 10:55:52;;;;;;;1999.90;999.90;;;;;;;29.60;34.77;95024.06;5073041;28;20640;-61
2021/05/02 10:58:27;;;;;;;1999.90;999.90;;;;;;;29.88;34.22;95017.88;5072671;28;20192;-61
2021/05/02 11:00:57;;;;;;;1999.90;999.90;;;;;;;30.01;33.33;95012.53;5072901;28;20640;-63